Time;durP1;ratioP1;P1;durP2;ratioP2;P2;SDS_P1;SDS_P2;PMS_P1;PMS_P2;Temp;Humidity;BMP_temperature;BMP_pressure;BME280_temperature;BME280_humidity;BME280_pressure;Samples;Min_cycle;Max_cycle;Signal;HPM_P1;HPM_P2
2022/08/02 00:01:34;;;;;;;13.32;3.80;;;;;;;;;;5070939;28;20056;-60
2022/08/02 00:03:59;;;;;;;10.70;3.90;;;12.90;99.90;;;;;;5071179;28;20048;-60
2022/08/02 00:06:25;;;;;;;7.53;3.78;;;;;;;;;;5051661;28;20396;-60
2022/08/02 00:08:52;;;;;;;13.82;3.95;;;12.50;99.90;;;;;;5051530;28;20045;-61
2022/08/02 00:11:18;;;;;;;11.13;3.63;;;13.20;99.90;;;;;;5051040;28;20033;-60
2022/08/02 00:13:45;;;;;;;12.73;3.72;;;;;;;;;;5051272;28;20037;-60
2022/08/02 00:16:11;;;;;;;8.95;4.00;;;12.60;99.90;;;;;;5051040;28;20037;-61
2022/08/02 00:18:37;;;;;;;9.82;3.97;;;12.70;99.90;;;;;;5051478;28;20431;-60
2022/08/02 00:21:02;;;;;;;9.27;3.92;;;12.60;99.90;;;;;;5052156;28;20075;-60
2022/08/02 00:23:28;;;;;;;13.43;3.90;;;;;;;;;;5051384;28;20045;-60
2022/08/02 00:25:54;;;;;;;13.25;4.30;;;;;;;;;;5050941;28;20055;-60
2022/08/02 00:28:20;;;;;;;12.52;4.22;;;12.80;99.90;;;;;;5059123;28;20041;-60
2022/08/02 00:30:46;;;;;;;11.10;3.85;;;12.90;99.90;;;;;;5059003;28;20526;-60
2022/08/02 00:33:11;;;;;;;17.13;4.90;;;13.30;99.90;;;;;;5051038;28;20526;-60
2022/08/02 00:35:37;;;;;;;8.98;3.95;;;12.80;99.90;;;;;;5050733;28;20555;-60
2022/08/02 00:38:03;;;;;;;10.60;3.92;;;12.90;99.90;;;;;;5051020;28;20033;-60
2022/08/02 00:40:29;;;;;;;11.13;3.90;;;13.10;99.90;;;;;;5064234;28;20119;-60
2022/08/02 00:43:08;;;;;;;11.43;3.85;;;12.90;99.90;;;;;;5070707;28;20033;-61
2022/08/02 00:45:38;;;;;;;12.27;4.35;;;13.70;99.90;;;;;;5071023;28;20472;-61
2022/08/02 00:48:06;;;;;;;10.55;4.47;;;13.60;99.90;;;;;;5070806;28;20037;-60
2022/08/02 00:50:32;;;;;;;10.20;4.07;;;13.00;99.90;;;;;;5071018;28;20051;-61
2022/08/02 00:52:58;;;;;;;8.90;4.20;;;12.70;99.90;;;;;;5070719;28;20045;-60
2022/08/02 00:55:24;;;;;;;11.55;4.70;;;13.00;99.90;;;;;;5055952;28;20124;-60
2022/08/02 00:57:50;;;;;;;12.90;4.57;;;12.90;99.90;;;;;;5050802;28;20033;-60
2022/08/02 01:00:27;;;;;;;11.55;4.60;;;13.00;99.90;;;;;;5078253;22;20076;31
2022/08/02 01:02:53;;;;;;;11.13;4.25;;;12.90;99.90;;;;;;4966692;28;20096;-59
2022/08/02 01:05:19;;;;;;;15.02;5.10;;;12.90;99.90;;;;;;4963837;28;20460;-58
2022/08/02 01:07:45;;;;;;;12.02;4.60;;;13.10;99.90;;;;;;4971080;28;20051;-58
2022/08/02 01:10:10;;;;;;;17.58;4.80;;;12.90;99.90;;;;;;4972184;28;20061;-58
2022/08/02 01:12:37;;;;;;;13.23;4.60;;;;;;;;;;4973761;28;20057;-58
2022/08/02 01:15:06;;;;;;;13.32;4.70;;;13.00;99.90;;;;;;4975237;28;20035;-58
2022/08/02 01:18:08;;;;;;;13.38;5.35;;;12.90;99.90;;;;;;4973957;28;20263;-60
2022/08/02 01:21:08;;;;;;;17.60;4.88;;;13.00;99.90;;;;;;4956161;29;20075;-58
2022/08/02 01:23:55;;;;;;;12.63;4.80;;;13.00;99.90;;;;;;4956057;29;20408;-59
2022/08/02 01:26:42;;;;;;;15.30;4.47;;;12.90;99.90;;;;;;4955939;29;20090;-63
2022/08/02 01:29:15;;;;;;;14.57;4.95;;;12.70;99.90;;;;;;4956078;29;20122;-59
2022/08/02 01:32:06;;;;;;;11.90;4.78;;;12.90;99.90;;;;;;4938602;29;20049;-59
2022/08/02 01:34:59;;;;;;;12.10;4.75;;;12.50;99.90;;;;;;4960293;28;20424;-60
2022/08/02 01:37:28;;;;;;;14.07;5.18;;;12.60;99.90;;;;;;4975310;28;20049;-60
2022/08/02 01:39:59;;;;;;;17.55;4.78;;;13.00;99.90;;;;;;4975188;28;20077;-59
2022/08/02 01:42:26;;;;;;;13.02;5.15;;;12.80;99.90;;;;;;4975013;28;20062;-59
2022/08/02 01:44:54;;;;;;;13.80;4.82;;;13.00;99.90;;;;;;4975095;28;20158;-59
2022/08/02 01:47:36;;;;;;;13.30;4.82;;;12.80;99.90;;;;;;4974688;28;20363;-59
2022/08/02 01:50:04;;;;;;;14.80;5.13;;;12.60;99.90;;;;;;4974445;28;20092;-59
2022/08/02 01:52:36;;;;;;;14.13;5.47;;;12.80;99.90;;;;;;4974957;28;20038;-58
2022/08/02 01:55:12;;;;;;;13.20;5.18;;;12.70;99.90;;;;;;4974759;28;20042;-58
2022/08/02 01:57:44;;;;;;;16.50;5.28;;;12.60;99.90;;;;;;4975013;28;20050;-59
2022/08/02 02:00:10;;;;;;;16.13;4.93;;;12.90;99.90;;;;;;4974319;28;20125;-58
2022/08/02 02:02:42;;;;;;;13.75;5.38;;;12.80;99.90;;;;;;4974370;28;20062;-58
2022/08/02 02:05:15;;;;;;;19.02;5.88;;;12.70;99.90;;;;;;4974531;28;20054;-58
2022/08/02 02:07:43;;;;;;;13.32;5.43;;;12.70;99.90;;;;;;4974452;28;20047;-58
2022/08/02 02:10:13;;;;;;;14.02;5.05;;;12.60;99.90;;;;;;4974202;28;20030;-58
2022/08/02 02:12:42;;;;;;;12.38;5.60;;;12.40;99.90;;;;;;4974516;28;20503;-58
2022/08/02 02:15:10;;;;;;;12.73;5.32;;;12.60;99.90;;;;;;4974384;28;20114;-58
2022/08/02 02:17:38;;;;;;;14.75;5.15;;;12.50;99.90;;;;;;4974593;28;20534;-58
2022/08/02 02:20:05;;;;;;;12.65;5.30;;;13.40;99.90;;;;;;4974336;28;20079;-59
2022/08/02 02:22:31;;;;;;;12.98;5.53;;;13.10;99.90;;;;;;4972695;28;20043;-58
2022/08/02 02:24:57;;;;;;;15.40;5.40;;;12.50;99.90;;;;;;4974176;28;20577;-59
2022/08/02 02:27:24;;;;;;;12.43;5.30;;;12.60;99.90;;;;;;4974292;28;20042;-59
2022/08/02 02:29:52;;;;;;;16.80;5.35;;;12.60;99.90;;;;;;4974368;28;20093;-58
2022/08/02 02:32:19;;;;;;;15.15;5.63;;;12.50;99.90;;;;;;4974015;28;20126;-58
2022/08/02 02:34:48;;;;;;;20.55;5.45;;;12.50;99.90;;;;;;4973968;28;20078;-58
2022/08/02 02:37:20;;;;;;;20.60;6.90;;;11.90;99.90;;;;;;4972370;28;20042;-59
2022/08/02 02:39:49;;;;;;;20.15;5.82;;;12.60;99.90;;;;;;4973754;28;20487;-58
2022/08/02 02:42:18;;;;;;;15.07;5.40;;;12.50;99.90;;;;;;4973725;28;20548;-58
2022/08/02 02:44:46;;;;;;;14.10;5.57;;;12.60;99.90;;;;;;4973748;28;20054;-58
2022/08/02 02:47:14;;;;;;;12.57;5.10;;;12.50;99.90;;;;;;4973505;28;20475;-58
2022/08/02 02:49:42;;;;;;;11.13;5.72;;;12.40;99.90;;;;;;4973720;28;20035;-58
2022/08/02 02:52:08;;;;;;;12.70;5.93;;;;;;;;;;4973655;28;20093;-58
2022/08/02 02:54:36;;;;;;;11.25;5.63;;;12.60;99.90;;;;;;4973777;28;20050;-58
2022/08/02 02:57:04;;;;;;;12.98;5.57;;;12.70;99.90;;;;;;4973495;28;20088;-58
2022/08/02 02:59:32;;;;;;;15.75;5.75;;;12.60;99.90;;;;;;4973522;28;20047;-58
2022/08/02 03:02:00;;;;;;;16.98;6.05;;;12.50;99.90;;;;;;4972716;28;20065;-58
2022/08/02 03:04:29;;;;;;;12.85;6.28;;;11.90;99.90;;;;;;4940006;28;20066;-58
2022/08/02 03:06:56;;;;;;;15.75;5.82;;;;;;;;;;4972801;28;20043;-58
2022/08/02 03:09:22;;;;;;;18.58;6.35;;;;;;;;;;4973471;28;20498;-58
2022/08/02 03:11:47;;;;;;;17.25;6.05;;;13.30;99.90;;;;;;4973570;28;20122;-58
2022/08/02 03:14:13;;;;;;;15.75;6.03;;;12.60;99.90;;;;;;4973277;28;20038;-58
2022/08/02 03:16:47;;;;;;;16.30;5.88;;;12.00;99.90;;;;;;4973096;28;20070;-59
2022/08/02 03:19:14;;;;;;;19.02;6.38;;;12.60;99.90;;;;;;4973335;28;20043;-59
2022/08/02 03:21:41;;;;;;;14.07;5.95;;;12.60;99.90;;;;;;4954646;28;20538;-58
2022/08/02 03:24:07;;;;;;;11.95;5.75;;;12.60;99.90;;;;;;4973154;28;20039;-59
2022/08/02 03:26:33;;;;;;;15.25;5.72;;;;;;;;;;4973007;28;20046;-58
2022/08/02 03:28:59;;;;;;;16.23;6.03;;;12.70;99.90;;;;;;4972879;28;20038;-58
2022/08/02 03:31:29;;;;;;;14.63;5.72;;;12.70;99.90;;;;;;4972754;28;20043;-58
2022/08/02 03:33:57;;;;;;;13.77;6.07;;;12.50;99.90;;;;;;4973358;28;20344;-58
2022/08/02 03:36:26;;;;;;;18.50;6.13;;;12.50;99.90;;;;;;4972207;28;20039;-59
2022/08/02 03:38:53;;;;;;;17.20;6.32;;;12.50;99.90;;;;;;4972568;28;20065;-58
2022/08/02 03:41:21;;;;;;;14.25;6.30;;;12.60;99.90;;;;;;4972791;28;20446;-59
2022/08/02 03:43:51;;;;;;;16.02;6.50;;;12.60;99.90;;;;;;4972870;28;20334;-59
2022/08/02 03:46:20;;;;;;;12.68;6.10;;;13.30;99.90;;;;;;4972784;28;20054;-58
2022/08/02 03:48:48;;;;;;;16.13;6.32;;;12.60;99.90;;;;;;4972841;28;20475;-58
2022/08/02 03:51:15;;;;;;;19.98;6.75;;;12.60;99.90;;;;;;4972288;28;20046;-58
2022/08/02 03:53:41;;;;;;;18.27;6.65;;;12.70;99.90;;;;;;4972814;28;20034;-58
2022/08/02 03:56:08;;;;;;;16.48;6.28;;;11.50;99.90;;;;;;4955242;28;20277;-58
2022/08/02 03:58:34;;;;;;;25.20;6.75;;;13.00;99.90;;;;;;4972441;28;20038;-59
2022/08/02 04:01:00;;;;;;;17.15;6.85;;;;;;;;;;4971183;28;20446;-58
2022/08/02 04:03:26;;;;;;;19.00;6.78;;;12.60;99.90;;;;;;4972701;28;20459;-59
2022/08/02 04:05:52;;;;;;;17.23;6.93;;;13.20;99.90;;;;;;4972477;28;20039;-58
2022/08/02 04:08:18;;;;;;;15.93;6.55;;;;;;;;;;4972267;28;20042;-58
2022/08/02 04:13:32;;;;;;;15.90;6.75;;;13.50;99.90;;;;;;4972554;28;20046;-58
2022/08/02 04:16:06;;;;;;;18.13;6.85;;;13.50;99.90;;;;;;4955377;28;20078;-58
2022/08/02 04:18:38;;;;;;;19.48;7.20;;;12.60;99.90;;;;;;4972821;28;20043;-58
2022/08/02 04:21:08;;;;;;;17.67;7.00;;;13.00;99.90;;;;;;4972134;28;20121;-58
2022/08/02 04:23:35;;;;;;;19.02;6.88;;;13.10;99.90;;;;;;4972296;28;20101;-58
2022/08/02 04:26:03;;;;;;;17.17;6.82;;;12.90;99.90;;;;;;4972462;28;20049;-59
2022/08/02 04:28:29;;;;;;;15.35;6.95;;;13.30;99.90;;;;;;4972264;28;20122;-58
2022/08/02 04:30:56;;;;;;;18.98;7.07;;;14.40;99.90;;;;;;4972437;28;20426;-58
2022/08/02 04:33:22;;;;;;;18.42;7.10;;;12.50;99.90;;;;;;4970967;28;20104;-58
2022/08/02 04:35:48;;;;;;;14.30;6.45;;;13.20;99.90;;;;;;4954551;28;20070;-58
2022/08/02 04:38:16;;;;;;;17.10;6.63;;;;;;;;;;4972195;28;20073;-58
2022/08/02 04:40:53;;;;;;;13.43;6.50;;;13.50;99.90;;;;;;4972231;28;20086;-58
2022/08/02 04:43:19;;;;;;;15.32;6.45;;;13.40;99.90;;;;;;4972086;28;20038;-59
2022/08/02 04:45:48;;;;;;;16.02;6.53;;;13.50;99.90;;;;;;4972077;28;20118;-58
2022/08/02 04:48:14;;;;;;;21.60;7.05;;;14.00;99.90;;;;;;4974724;28;20118;-59
2022/08/02 04:50:39;;;;;;;11.95;6.53;;;13.20;99.90;;;;;;4975269;28;20126;-59
2022/08/02 04:53:06;;;;;;;17.48;6.72;;;14.00;99.90;;;;;;4975791;28;20053;-58
2022/08/02 04:55:31;;;;;;;18.92;6.68;;;13.70;99.90;;;;;;4974365;28;20039;-59
2022/08/02 04:57:58;;;;;;;12.60;5.82;;;15.50;99.90;;;;;;4975506;28;20387;-59
2022/08/02 05:00:25;;;;;;;12.38;6.00;;;15.00;99.90;;;;;;4975466;28;20066;-59
2022/08/02 05:02:58;;;;;;;15.43;6.03;;;15.90;99.90;;;;;;4936951;29;20058;-59
2022/08/02 05:05:24;;;;;;;15.25;6.03;;;17.40;99.90;;;;;;4936555;29;20496;-58
2022/08/02 05:07:51;;;;;;;13.48;5.78;;;18.30;99.90;;;;;;4936743;29;20046;-60
2022/08/02 05:10:16;;;;;;;12.02;5.25;;;18.30;99.90;;;;;;4937335;29;20369;-58
2022/08/02 05:12:42;;;;;;;17.30;5.40;;;19.00;99.90;;;;;;4936766;29;20052;-58
2022/08/02 05:15:11;;;;;;;10.70;5.20;;;19.60;99.90;;;;;;4936685;29;20126;-58
2022/08/02 05:17:37;;;;;;;17.08;5.43;;;20.80;99.90;;;;;;4935477;29;20162;-58
2022/08/02 05:20:06;;;;;;;13.55;5.13;;;20.70;99.90;;;;;;4919558;29;20107;-59
2022/08/02 05:22:32;;;;;;;9.32;4.60;;;21.20;99.90;;;;;;4936825;29;20102;-58
2022/08/02 05:24:58;;;;;;;11.38;4.57;;;21.70;99.90;;;;;;4919575;29;20059;-59
2022/08/02 05:27:27;;;;;;;9.35;4.57;;;22.10;99.90;;;;;;4919662;29;20044;-60
2022/08/02 05:29:53;;;;;;;12.18;4.47;;;22.60;99.90;;;;;;4919451;29;20555;-59
2022/08/02 05:32:19;;;;;;;9.75;4.60;;;23.10;99.90;;;;;;4936467;29;20040;-60
2022/08/02 05:34:45;;;;;;;7.85;4.05;;;23.40;98.70;;;;;;4936448;29;20123;-59
2022/08/02 05:37:10;;;;;;;9.35;4.25;;;23.90;96.40;;;;;;4936457;29;20091;-59
2022/08/02 05:39:36;;;;;;;10.98;4.20;;;24.20;94.40;;;;;;4936539;29;20184;-61
2022/08/02 05:42:04;;;;;;;13.63;4.20;;;24.70;94.70;;;;;;4936773;29;20046;-59
2022/08/02 05:44:31;;;;;;;13.02;4.30;;;24.40;97.70;;;;;;4936581;29;20040;-59
2022/08/02 05:46:56;;;;;;;10.10;4.15;;;24.90;89.30;;;;;;4935918;29;20158;-60
2022/08/02 05:49:22;;;;;;;8.82;3.92;;;25.40;95.60;;;;;;4936272;29;20515;-60
2022/08/02 05:52:16;;;;;;;8.52;3.92;;;25.40;84.20;;;;;;4936530;29;20389;-59
2022/08/02 05:55:05;;;;;;;12.45;4.15;;;25.80;80.70;;;;;;4936104;29;20063;-59
2022/08/02 05:58:01;;;;;;;11.07;4.28;;;26.10;75.60;;;;;;4918141;29;20044;-59
2022/08/02 06:00:31;;;;;;;9.07;3.75;;;26.40;72.20;;;;;;4936078;29;20509;-59
2022/08/02 06:03:18;;;;;;;10.90;4.07;;;26.70;72.60;;;;;;4974499;28;20059;-60
2022/08/02 06:05:59;;;;;;;7.22;3.50;;;26.80;71.30;;;;;;4974371;28;20038;-59
2022/08/02 06:08:31;;;;;;;12.85;3.67;;;27.00;69.60;;;;;;4972759;28;20047;-59
2022/08/02 06:11:02;;;;;;;10.00;3.92;;;28.00;81.50;;;;;;4974035;28;20042;-60
2022/08/02 06:13:28;;;;;;;12.82;3.80;;;27.50;67.50;;;;;;4973984;28;20561;-59
2022/08/02 06:15:58;;;;;;;10.80;3.70;;;27.60;65.70;;;;;;4973314;28;20035;-59
2022/08/02 06:18:28;;;;;;;9.45;3.90;;;27.80;64.80;;;;;;4987012;28;20089;-60
2022/08/02 06:21:00;;;;;;;8.77;3.50;;;28.10;64.40;;;;;;4976464;28;20042;-59
2022/08/02 06:23:26;;;;;;;9.52;3.83;;;28.30;62.90;;;;;;4993410;28;20053;-60
2022/08/02 06:25:52;;;;;;;12.45;4.03;;;27.90;72.80;;;;;;4980541;28;20153;-59
2022/08/02 06:28:19;;;;;;;7.90;3.80;;;28.10;62.30;;;;;;4975779;28;20133;-59
2022/08/02 06:30:45;;;;;;;9.30;3.40;;;28.10;62.40;;;;;;4993463;28;20046;-59
2022/08/02 06:33:12;;;;;;;11.05;3.92;;;29.00;70.60;;;;;;4993221;28;20505;-59
2022/08/02 06:36:18;;;;;;;7.00;3.33;;;28.20;61.70;;;;;;4993023;28;20046;-60
2022/08/02 06:39:03;;;;;;;9.73;3.78;;;28.30;71.40;;;;;;4993102;28;20042;-61
2022/08/02 06:41:38;;;;;;;10.07;3.85;;;28.60;70.20;;;;;;4993216;28;20108;-59
2022/08/02 06:44:04;;;;;;;8.90;3.50;;;28.80;59.70;;;;;;4993111;28;20049;-59
2022/08/02 06:46:31;;;;;;;10.95;3.63;;;29.00;59.20;;;;;;4976082;28;20038;-59
2022/08/02 06:48:59;;;;;;;8.20;3.50;;;29.20;58.70;;;;;;4986601;28;20054;-59
2022/08/02 06:51:25;;;;;;;11.88;3.70;;;29.30;58.00;;;;;;4955731;28;20051;-59
2022/08/02 06:53:51;;;;;;;11.07;3.90;;;29.50;57.60;;;;;;4973467;28;20394;-59
2022/08/02 06:56:16;;;;;;;11.60;3.53;;;29.70;57.40;;;;;;4973070;28;20374;-59
2022/08/02 06:58:42;;;;;;;9.93;3.63;;;29.80;68.70;;;;;;4973063;28;20039;-59
2022/08/02 07:01:08;;;;;;;8.98;3.35;;;30.00;56.80;;;;;;4972949;28;20055;-59
2022/08/02 07:03:38;;;;;;;10.15;3.58;;;30.00;66.00;;;;;;4966224;28;20121;-59
2022/08/02 07:06:08;;;;;;;7.63;3.13;;;30.00;56.50;;;;;;4961271;28;20043;-59
2022/08/02 07:08:37;;;;;;;9.13;3.40;;;29.70;56.80;;;;;;4970888;28;20105;-59
2022/08/02 07:11:07;;;;;;;8.45;3.30;;;30.10;67.10;;;;;;4971210;28;20499;-59
2022/08/02 07:13:33;;;;;;;8.27;3.47;;;29.40;57.30;;;;;;4972450;28;20034;-59
2022/08/02 07:16:00;;;;;;;7.70;3.30;;;29.50;57.30;;;;;;4971509;28;20482;-59
2022/08/02 07:18:25;;;;;;;6.28;3.13;;;29.60;57.10;;;;;;4971380;28;20051;-59
2022/08/02 07:20:51;;;;;;;11.25;3.50;;;29.90;56.60;;;;;;4971610;28;20509;-59
2022/08/02 07:23:17;;;;;;;9.65;2.97;;;30.30;55.70;;;;;;4969743;28;20112;-61
2022/08/02 07:25:43;;;;;;;8.57;3.08;;;30.80;55.00;;;;;;4952756;29;20055;-61
2022/08/02 07:28:10;;;;;;;8.00;2.80;;;31.00;54.50;;;;;;4952989;29;20046;-61
2022/08/02 07:30:36;;;;;;;9.63;2.83;;;31.10;54.30;;;;;;4935282;29;20059;-60
2022/08/02 07:33:02;;;;;;;6.70;2.55;;;31.00;53.80;;;;;;4952555;29;20442;-61
2022/08/02 07:35:28;;;;;;;11.70;3.10;;;30.70;54.00;;;;;;4952874;29;20216;-60
2022/08/02 07:37:54;;;;;;;8.13;2.60;;;30.20;62.80;;;;;;4935555;29;20130;-61
2022/08/02 07:40:20;;;;;;;6.28;2.60;;;30.00;55.10;;;;;;4935304;29;20055;-59
2022/08/02 07:42:50;;;;;;;10.32;3.00;;;29.30;56.60;;;;;;4952726;29;20035;-59
2022/08/02 07:45:16;;;;;;;6.40;2.35;;;28.40;57.80;;;;;;4935355;29;20055;-58
2022/08/02 07:47:43;;;;;;;9.02;3.03;;;26.80;66.70;;;;;;4952514;29;20039;-59
2022/08/02 07:50:10;;;;;;;4.50;2.50;;;27.40;60.70;;;;;;4965130;28;20035;-58
2022/08/02 07:52:37;;;;;;;8.43;2.78;;;27.20;62.00;;;;;;4971732;28;20075;-59
2022/08/02 07:55:03;;;;;;;10.82;2.78;;;27.20;62.80;;;;;;4967628;28;20034;-59
2022/08/02 07:57:30;;;;;;;5.05;2.30;;;27.30;63.30;;;;;;4971136;28;20035;-58
2022/08/02 07:59:55;;;;;;;5.43;2.30;;;27.30;69.80;;;;;;4954806;28;20128;-58
2022/08/02 08:02:23;;;;;;;6.88;2.40;;;27.50;71.50;;;;;;4971372;28;20196;-58
2022/08/02 08:04:49;;;;;;;9.27;2.45;;;27.40;62.40;;;;;;4955084;28;20051;-59
2022/08/02 08:07:15;;;;;;;6.63;2.42;;;27.70;62.10;;;;;;4972406;28;20122;-59
2022/08/02 08:09:40;;;;;;;5.93;2.30;;;28.70;69.40;;;;;;4971394;28;20489;-59
2022/08/02 08:12:10;;;;;;;8.30;2.40;;;28.00;61.90;;;;;;4954525;28;20047;-58
2022/08/02 08:14:37;;;;;;;9.23;2.35;;;28.00;61.20;;;;;;4972043;28;20046;-58
2022/08/02 08:17:04;;;;;;;7.30;2.25;;;28.10;62.10;;;;;;4972233;28;20463;-58
2022/08/02 08:19:30;;;;;;;4.53;2.00;;;27.90;61.50;;;;;;4972360;28;20035;-58
2022/08/02 08:21:58;;;;;;;6.03;2.20;;;27.80;60.90;;;;;;4974671;28;20039;-59
2022/08/02 08:24:24;;;;;;;4.20;2.08;;;27.90;61.80;;;;;;4976158;28;20049;-59
2022/08/02 08:26:50;;;;;;;8.52;2.30;;;27.80;68.90;;;;;;4976319;28;20118;-58
2022/08/02 08:29:15;;;;;;;7.00;2.05;;;27.70;61.90;;;;;;4976290;28;20122;-58
2022/08/02 08:31:41;;;;;;;4.03;2.00;;;27.80;61.50;;;;;;4975620;28;20051;-59
2022/08/02 08:34:07;;;;;;;5.72;2.10;;;27.90;61.80;;;;;;4976312;28;20039;-58
2022/08/02 08:36:32;;;;;;;7.13;2.35;;;28.00;68.50;;;;;;4976124;28;20038;-58
2022/08/02 08:38:59;;;;;;;7.35;2.30;;;28.00;61.20;;;;;;4976092;28;20042;-59
2022/08/02 08:41:24;;;;;;;5.10;1.80;;;28.20;65.60;;;;;;4975950;28;20065;-59
2022/08/02 08:43:52;;;;;;;7.15;2.47;;;27.30;62.40;;;;;;4958466;28;20475;-59
2022/08/02 08:46:28;;;;;;;5.97;2.30;;;28.30;58.80;;;;;;4976016;28;20077;-59
2022/08/02 08:49:21;;;;;;;5.35;2.13;;;28.20;59.40;;;;;;4975728;28;20367;-59
2022/08/02 08:51:50;;;;;;;4.72;2.08;;;28.20;58.80;;;;;;4958538;28;20084;-59
2022/08/02 08:54:17;;;;;;;4.32;2.08;;;28.10;59.00;;;;;;4975723;28;20495;-59
2022/08/02 08:56:43;;;;;;;6.78;1.63;;;27.90;59.40;;;;;;4975844;28;20130;-60
2022/08/02 08:59:09;;;;;;;6.05;1.92;;;27.60;57.90;;;;;;4975709;28;20043;-60
2022/08/02 09:01:36;;;;;;;6.05;1.98;;;27.50;58.80;;;;;;4975638;28;20059;-60
2022/08/02 09:04:02;;;;;;;7.28;2.10;;;27.60;59.80;;;;;;4975918;28;20062;-60
2022/08/02 09:06:28;;;;;;;4.60;1.83;;;27.70;59.20;;;;;;4958124;28;20519;-59
2022/08/02 09:08:53;;;;;;;3.92;1.70;;;27.80;57.60;;;;;;4975170;28;20039;-59
2022/08/02 09:11:23;;;;;;;5.35;1.90;;;27.60;56.10;;;;;;4975669;28;20043;-59
2022/08/02 09:13:55;;;;;;;5.45;1.90;;;27.50;63.60;;;;;;4975448;28;20042;-59
2022/08/02 09:16:34;;;;;;;4.13;1.90;;;27.50;56.20;;;;;;4975424;28;20078;-59
2022/08/02 09:19:20;;;;;;;3.33;1.90;;;27.50;56.40;;;;;;4971217;28;20511;-60
2022/08/02 09:21:49;;;;;;;4.32;1.90;;;27.50;56.80;;;;;;4957908;28;20098;-59
2022/08/02 09:24:17;;;;;;;3.47;1.75;;;27.50;57.00;;;;;;4975119;28;20549;-59
2022/08/02 09:26:43;;;;;;;5.88;1.83;;;27.40;57.10;;;;;;4975480;28;20042;-59
2022/08/02 09:29:10;;;;;;;3.70;1.75;;;27.50;56.70;;;;;;4974979;28;20043;-59
2022/08/02 09:31:35;;;;;;;4.97;1.80;;;27.50;56.20;;;;;;4975120;28;20087;-61
2022/08/02 09:34:01;;;;;;;7.75;2.05;;;27.50;56.60;;;;;;4957057;28;20141;-61
2022/08/02 09:36:37;;;;;;;4.82;1.85;;;27.60;57.40;;;;;;4975101;28;20045;-61
2022/08/02 09:39:05;;;;;;;4.35;1.90;;;27.60;55.80;;;;;;4974934;28;20049;-60
2022/08/02 09:41:37;;;;;;;3.95;2.00;;;27.70;56.70;;;;;;4957503;28;20062;-60
2022/08/02 09:44:10;;;;;;;3.15;1.80;;;27.70;56.60;;;;;;4974937;28;20038;-60
2022/08/02 09:46:41;;;;;;;6.88;2.20;;;27.80;56.70;;;;;;4974675;28;20042;-60
2022/08/02 09:49:15;;;;;;;4.97;2.08;;;27.80;56.80;;;;;;4974914;28;20364;-61
2022/08/02 09:51:51;;;;;;;7.00;2.08;;;27.30;62.10;;;;;;4974733;28;20046;-60
2022/08/02 09:54:17;;;;;;;3.92;2.00;;;27.70;57.30;;;;;;4975173;28;20364;-60
2022/08/02 09:56:45;;;;;;;3.38;1.90;;;27.90;58.00;;;;;;4974473;28;20117;-61
2022/08/02 09:59:16;;;;;;;5.38;2.30;;;28.00;58.40;;;;;;4974507;28;20054;-61
2022/08/02 10:01:46;;;;;;;4.68;2.50;;;28.00;57.90;;;;;;4974473;28;20051;-60
2022/08/02 10:04:14;;;;;;;5.25;2.40;;;27.90;58.00;;;;;;4974489;28;20057;-61
2022/08/02 10:06:42;;;;;;;5.00;2.33;;;27.90;58.40;;;;;;4974364;28;20487;-61
2022/08/02 10:09:09;;;;;;;5.88;2.38;;;28.00;58.80;;;;;;4974313;28;20372;-60
2022/08/02 10:11:40;;;;;;;7.05;2.60;;;27.90;67.50;;;;;;4974460;28;20043;-61
2022/08/02 10:14:08;;;;;;;8.57;2.90;;;28.10;59.60;;;;;;4974592;28;20034;-61
2022/08/02 10:16:35;;;;;;;4.20;2.33;;;28.10;59.90;;;;;;4974137;28;20039;-61
2022/08/02 10:19:03;;;;;;;6.18;2.25;;;28.00;60.20;;;;;;4974292;28;20123;-61
2022/08/02 10:21:59;;;;;;;8.32;2.50;;;27.90;60.70;;;;;;4974379;28;20500;-61
2022/08/02 10:24:27;;;;;;;7.65;2.55;;;28.00;61.80;;;;;;4962106;28;20058;-61
2022/08/02 10:26:54;;;;;;;6.88;2.50;;;27.90;62.30;;;;;;4957061;28;20394;-61
2022/08/02 10:29:28;;;;;;;8.32;2.85;;;28.50;69.50;;;;;;4973837;28;20045;-61
2022/08/02 10:32:03;;;;;;;8.10;2.60;;;27.90;62.40;;;;;;4974072;28;20054;-61
2022/08/02 10:34:47;;;;;;;5.03;2.40;;;27.90;63.50;;;;;;4973780;28;20278;-61
2022/08/02 10:37:14;;;;;;;7.15;2.70;;;27.80;70.70;;;;;;4974044;28;20071;-61
2022/08/02 10:39:44;;;;;;;6.20;2.92;;;27.90;64.30;;;;;;4973503;28;20122;-61
2022/08/02 10:42:12;;;;;;;7.38;3.20;;;27.90;64.20;;;;;;4956266;28;20122;-61
2022/08/02 10:44:38;;;;;;;8.07;3.20;;;27.90;64.40;;;;;;4973409;28;20047;-62
2022/08/02 10:47:13;;;;;;;9.38;3.13;;;28.00;64.80;;;;;;4973629;28;20126;-61
2022/08/02 10:49:51;;;;;;;5.07;3.15;;;28.10;66.20;;;;;;4973451;28;20043;-61
2022/08/02 10:52:18;;;;;;;5.50;2.90;;;28.10;65.90;;;;;;4973393;28;20139;-63
2022/08/02 10:54:54;;;;;;;8.73;3.47;;;28.30;66.90;;;;;;4973402;28;20042;-65
2022/08/02 10:57:27;;;;;;;7.70;3.55;;;28.30;66.40;;;;;;4973186;28;20163;-69
2022/08/02 11:00:01;;;;;;;6.43;3.13;;;28.50;67.20;;;;;;4973575;28;20364;-62
2022/08/02 11:02:46;;;;;;;10.02;3.47;;;28.50;65.40;;;;;;4973131;28;20063;-61
2022/08/02 11:05:17;;;;;;;10.10;3.20;;;28.60;71.50;;;;;;4973151;28;20069;-61
2022/08/02 11:07:48;;;;;;;6.70;3.00;;;28.70;65.70;;;;;;4973255;28;20101;-61
2022/08/02 11:10:33;;;;;;;8.57;3.50;;;28.60;65.30;;;;;;4973123;28;20058;-61
2022/08/02 11:13:18;;;;;;;7.72;3.70;;;28.60;64.90;;;;;;4973270;28;20043;-61
2022/08/02 11:15:48;;;;;;;;;;;28.50;64.80;;;;;;4956634;28;20156;-61
2022/08/02 11:18:15;;;;;;;11.82;4.10;;;28.40;64.60;;;;;;4973066;28;19965;-61
2022/08/02 11:20:40;;;;;;;8.15;3.67;;;28.30;65.40;;;;;;4972953;28;20487;-60
2022/08/02 11:23:31;;;;;;;7.57;3.58;;;28.30;65.70;;;;;;4956271;28;20505;-61
2022/08/02 11:25:57;;;;;;;8.00;3.63;;;28.20;66.10;;;;;;4973008;28;20159;-60
2022/08/02 11:28:24;;;;;;;9.75;3.30;;;28.30;66.70;;;;;;4973067;28;20059;-60
2022/08/02 11:31:00;;;;;;;7.10;3.35;;;28.30;66.90;;;;;;4972701;28;20406;-60
2022/08/02 11:33:31;;;;;;;8.05;3.10;;;28.50;66.70;;;;;;4955777;28;20046;-60
2022/08/02 11:36:03;;;;;;;7.00;3.40;;;28.50;65.20;;;;;;4955505;28;20074;-60
2022/08/02 11:38:29;;;;;;;5.82;2.70;;;28.50;65.90;;;;;;4972857;28;20053;-61
2022/08/02 11:40:55;;;;;;;4.18;2.55;;;28.50;66.10;;;;;;4972675;28;20061;-61
2022/08/02 11:43:23;;;;;;;8.70;2.67;;;28.50;65.40;;;;;;4972585;28;20490;-61
2022/08/02 11:45:51;;;;;;;5.45;2.45;;;28.50;66.20;;;;;;4972596;28;20078;-60
2022/08/02 11:48:39;;;;;;;6.95;2.70;;;28.60;66.10;;;;;;4972654;28;20046;-60
2022/08/02 11:51:11;;;;;;;3.60;2.40;;;28.70;64.60;;;;;;4972833;28;20047;-60
2022/08/02 11:53:56;;;;;;;6.30;2.47;;;28.60;64.30;;;;;;4972758;28;20061;-60
2022/08/02 11:56:31;;;;;;;6.65;2.60;;;28.70;64.10;;;;;;4972215;28;20419;-60
2022/08/02 11:59:11;;;;;;;3.97;2.22;;;28.70;64.20;;;;;;4972336;28;20085;-60
2022/08/02 12:01:39;;;;;;;4.28;2.20;;;28.70;63.40;;;;;;4972156;28;20063;-60
2022/08/02 12:04:06;;;;;;;8.48;2.50;;;28.70;65.00;;;;;;4955171;28;20055;-60
2022/08/02 12:06:33;;;;;;;5.00;2.40;;;28.80;63.60;;;;;;4972525;28;20085;-61
2022/08/02 12:08:59;;;;;;;8.25;2.15;;;28.80;63.30;;;;;;4972172;28;20129;-61
2022/08/02 12:11:25;;;;;;;6.90;2.70;;;28.80;64.30;;;;;;4939207;28;20126;-61
2022/08/02 12:13:51;;;;;;;5.38;2.40;;;28.80;64.30;;;;;;4955399;28;20034;-61
2022/08/02 12:19:22;;;;;;;;;;;28.80;63.90;;;;;;4972680;28;20058;-61
2022/08/02 12:21:48;;;;;;;;;;;28.80;63.40;;;;;;4972612;28;19929;-61
2022/08/02 12:24:27;;;;;;;8.10;2.30;;;28.90;65.20;;;;;;4972153;28;19918;-61
2022/08/02 12:26:53;;;;;;;5.43;2.30;;;29.00;63.40;;;;;;4971927;28;20261;-61
2022/08/02 12:29:29;;;;;;;4.45;2.50;;;29.10;62.50;;;;;;4972126;28;20041;-59
2022/08/02 12:31:54;;;;;;;3.38;2.20;;;29.20;61.10;;;;;;4972274;28;20054;-61
2022/08/02 12:34:21;;;;;;;6.05;2.42;;;29.30;61.40;;;;;;4971989;28;20034;-61
2022/08/02 12:37:00;;;;;;;10.60;2.47;;;29.50;61.00;;;;;;4972213;28;20129;-61
2022/08/02 12:39:41;;;;;;;5.07;2.28;;;29.60;59.80;;;;;;4971894;28;20039;-59
2022/08/02 12:42:09;;;;;;;4.80;2.20;;;29.60;60.10;;;;;;4972316;28;20478;-59
2022/08/02 12:44:50;;;;;;;5.13;2.30;;;29.70;60.30;;;;;;4972234;28;20413;-58
2022/08/02 12:47:16;;;;;;;7.55;2.50;;;29.70;60.90;;;;;;4971989;28;20067;-59
2022/08/02 12:49:41;;;;;;;6.63;2.10;;;29.60;61.50;;;;;;4971725;28;20043;-59
2022/08/02 12:52:22;;;;;;;5.35;2.20;;;29.70;62.40;;;;;;4972098;28;20058;-59
2022/08/02 12:54:48;;;;;;;6.25;2.22;;;29.80;63.50;;;;;;4972178;28;20039;-59
2022/08/02 12:57:16;;;;;;;5.43;2.10;;;30.00;62.20;;;;;;4972045;28;20042;-59
2022/08/02 12:59:44;;;;;;;5.13;2.47;;;30.00;61.60;;;;;;4971861;28;20039;-59
2022/08/02 13:02:10;;;;;;;5.07;2.47;;;29.90;61.40;;;;;;4971317;28;20391;-59
2022/08/02 13:04:37;;;;;;;4.07;2.60;;;29.70;61.60;;;;;;4971916;28;20109;-59
2022/08/02 13:07:04;;;;;;;3.80;2.30;;;29.50;61.80;;;;;;4971945;28;20055;-59